createdAt,value
2023-04-19T00:01:21.184Z,33.13
2023-04-19T00:03:54.658Z,33.10
2023-04-19T00:06:29.908Z,33.13
2023-04-19T00:09:04.304Z,33.18
2023-04-19T00:11:37.568Z,33.22
2023-04-19T00:14:11.060Z,33.19
2023-04-19T00:16:44.698Z,33.14
2023-04-19T00:19:18.550Z,33.11
2023-04-19T00:21:51.960Z,33.07
2023-04-19T00:24:25.124Z,33.09
2023-04-19T00:26:59.190Z,33.10
2023-04-19T00:29:32.654Z,33.13
2023-04-19T00:32:06.855Z,33.09
2023-04-19T00:34:40.379Z,33.18
2023-04-19T00:37:14.023Z,33.09
2023-04-19T00:39:47.449Z,33.06
2023-04-19T00:42:22.055Z,33.05
2023-04-19T00:44:55.169Z,33.11
2023-04-19T00:47:28.882Z,33.11
2023-04-19T00:50:02.838Z,33.08
2023-04-19T00:52:36.786Z,33.05
2023-04-19T00:55:11.538Z,33.08
2023-04-19T00:57:45.641Z,33.18
2023-04-19T01:00:20.157Z,33.19
2023-04-19T01:02:54.025Z,33.19
2023-04-19T01:05:27.245Z,33.15
2023-04-19T01:08:01.009Z,33.16
2023-04-19T01:10:34.391Z,33.05
2023-04-19T01:13:07.847Z,33.07
2023-04-19T01:15:43.040Z,33.14
2023-04-19T01:18:16.168Z,33.08
2023-04-19T01:20:49.644Z,33.13
2023-04-19T01:23:23.376Z,33.13
2023-04-19T01:25:56.598Z,33.17
2023-04-19T01:28:31.276Z,33.19
2023-04-19T01:31:04.821Z,33.19
2023-04-19T01:33:38.156Z,33.17
2023-04-19T01:36:13.934Z,33.17
2023-04-19T01:38:48.523Z,33.16
2023-04-19T01:41:23.068Z,33.17
2023-04-19T01:43:56.441Z,33.17
2023-04-19T01:46:29.753Z,33.14
2023-04-19T01:49:03.338Z,33.15
2023-04-19T01:51:36.636Z,33.17
2023-04-19T01:54:10.015Z,33.20
2023-04-19T01:56:43.503Z,33.17
2023-04-19T01:59:16.869Z,33.21
2023-04-19T02:01:50.579Z,33.27
2023-04-19T02:04:24.051Z,33.30
2023-04-19T02:06:57.304Z,33.30
2023-04-19T02:09:30.783Z,33.32
2023-04-19T02:12:03.999Z,33.28
2023-04-19T02:14:38.076Z,33.26
2023-04-19T02:17:12.365Z,33.26
2023-04-19T02:19:46.025Z,33.34
2023-04-19T02:22:19.305Z,33.35
2023-04-19T02:24:53.964Z,33.33
2023-04-19T02:27:28.719Z,33.35
2023-04-19T02:30:02.158Z,33.43
2023-04-19T02:32:37.075Z,33.38
2023-04-19T02:35:13.961Z,33.42
2023-04-19T02:37:47.465Z,33.44
2023-04-19T02:40:22.496Z,33.55
2023-04-19T02:42:56.507Z,33.59
2023-04-19T02:45:30.791Z,33.61
2023-04-19T02:48:04.356Z,33.59
2023-04-19T02:50:39.864Z,33.59
2023-04-19T02:53:13.690Z,33.64
2023-04-19T02:55:47.602Z,33.66
2023-04-19T02:58:22.354Z,33.64
2023-04-19T03:00:57.536Z,33.70
2023-04-19T03:03:31.214Z,33.80
2023-04-19T03:06:05.239Z,33.73
2023-04-19T03:08:38.909Z,33.81
2023-04-19T03:11:16.280Z,33.83
2023-04-19T03:13:49.885Z,33.78
2023-04-19T03:16:23.139Z,33.70
2023-04-19T03:18:56.947Z,33.63
2023-04-19T03:21:31.572Z,33.61
2023-04-19T03:24:05.168Z,33.58
2023-04-19T03:26:39.043Z,33.60
2023-04-19T03:29:12.473Z,33.63
2023-04-19T03:31:47.714Z,33.61
2023-04-19T03:34:21.366Z,33.60
2023-04-19T03:36:54.872Z,33.66
2023-04-19T03:39:28.699Z,33.58
2023-04-19T03:42:03.784Z,33.55
2023-04-19T03:44:41.345Z,33.52
2023-04-19T03:47:15.043Z,33.63
2023-04-19T03:49:50.052Z,33.54
2023-04-19T03:52:23.570Z,33.43
2023-04-19T03:54:56.872Z,33.40
2023-04-19T03:57:32.196Z,33.38
2023-04-19T04:00:08.969Z,33.27
2023-04-19T04:02:45.132Z,33.13
2023-04-19T04:05:19.205Z,33.04
2023-04-19T04:07:58.749Z,33.02
2023-04-19T04:10:32.616Z,32.96
2023-04-19T04:13:06.311Z,32.96
2023-04-19T04:15:41.948Z,32.88
2023-04-19T04:18:17.941Z,32.96
2023-04-19T04:20:54.304Z,32.93
2023-04-19T04:23:32.717Z,32.81
2023-04-19T04:26:10.301Z,32.74
2023-04-19T04:28:46.102Z,32.69
2023-04-19T04:31:19.478Z,32.52
2023-04-19T04:33:56.280Z,32.45
2023-04-19T04:36:31.343Z,32.29
2023-04-19T04:39:10.634Z,32.35
2023-04-19T04:44:47.493Z,31.92
2023-04-19T04:47:22.288Z,31.75
2023-04-19T04:49:57.242Z,31.61
2023-04-19T04:52:31.063Z,31.44
2023-04-19T04:55:07.551Z,31.28
2023-04-19T04:57:42.183Z,31.14
2023-04-19T05:00:18.547Z,31.06
2023-04-19T05:02:53.915Z,31.02
2023-04-19T05:05:28.718Z,30.87
2023-04-19T05:08:02.338Z,30.77
2023-04-19T05:10:36.150Z,30.57
2023-04-19T05:13:10.799Z,30.59
2023-04-19T05:15:45.301Z,30.47
2023-04-19T05:18:19.577Z,30.45
2023-04-19T05:20:52.886Z,30.44
2023-04-19T05:23:27.995Z,30.44
2023-04-19T05:26:01.277Z,30.45
2023-04-19T05:28:34.798Z,30.52
2023-04-19T05:31:16.373Z,30.57
2023-04-19T05:33:51.340Z,30.49
2023-04-19T05:36:24.983Z,30.46
2023-04-19T05:38:58.421Z,30.33
2023-04-19T05:41:31.765Z,30.22
2023-04-19T05:44:05.489Z,30.16
2023-04-19T05:46:39.622Z,30.32
2023-04-19T05:49:15.070Z,30.38
2023-04-19T05:52:05.556Z,30.43
2023-04-19T05:54:49.484Z,30.46
2023-04-19T05:57:22.650Z,30.40
2023-04-19T05:59:56.083Z,30.10
2023-04-19T06:02:31.131Z,29.92
2023-04-19T06:05:09.361Z,29.63
2023-04-19T06:07:43.999Z,29.34
2023-04-19T06:10:17.080Z,29.20
2023-04-19T06:12:50.697Z,28.98
2023-04-19T06:15:26.103Z,28.72
2023-04-19T06:18:00.135Z,28.31
2023-04-19T06:20:33.561Z,27.96
2023-04-19T06:23:07.242Z,27.66
2023-04-19T06:25:41.372Z,27.45
2023-04-19T06:28:14.931Z,27.08
2023-04-19T06:30:49.392Z,27.07
2023-04-19T06:33:22.588Z,27.08
2023-04-19T06:35:55.956Z,26.80
2023-04-19T06:38:29.365Z,26.58
2023-04-19T06:41:02.687Z,25.97
2023-04-19T06:43:36.126Z,25.09
2023-04-19T06:46:10.115Z,23.95
2023-04-19T06:48:43.546Z,22.23
2023-04-19T06:51:17.284Z,20.92
2023-04-19T06:53:52.102Z,20.42
2023-04-19T06:56:45.853Z,20.04
2023-04-19T06:59:21.577Z,19.51
2023-04-19T07:01:57.119Z,19.22
2023-04-19T07:04:31.529Z,18.67
2023-04-19T07:07:05.640Z,18.69
2023-04-19T07:09:39.321Z,18.30
2023-04-19T07:12:12.758Z,17.89
2023-04-19T07:14:46.166Z,17.53
2023-04-19T07:17:19.952Z,16.75
2023-04-19T07:19:53.437Z,16.70
2023-04-19T07:22:26.641Z,15.83
2023-04-19T07:24:59.893Z,15.15
2023-04-19T07:27:35.000Z,14.60
2023-04-19T07:30:10.448Z,14.17
2023-04-19T07:32:43.960Z,13.93
2023-04-19T07:35:17.560Z,13.51
2023-04-19T07:37:50.879Z,13.27
2023-04-19T07:40:24.423Z,13.64
2023-04-19T07:42:59.366Z,13.94
2023-04-19T07:45:33.834Z,14.13
2023-04-19T07:48:08.430Z,14.31
2023-04-19T07:50:42.027Z,15.14
2023-04-19T07:53:16.600Z,15.60
2023-04-19T07:55:50.022Z,15.62
2023-04-19T07:58:23.657Z,15.11
2023-04-19T08:00:57.345Z,14.32
2023-04-19T08:03:31.054Z,14.26
2023-04-19T08:06:07.264Z,13.45
2023-04-19T08:08:40.833Z,13.01
2023-04-19T08:11:14.412Z,12.86
2023-04-19T08:14:02.551Z,12.22
2023-04-19T08:17:01.392Z,12.14
2023-04-19T08:18:58.352Z,11.79
2023-04-19T08:21:40.688Z,12.11
2023-04-19T08:24:09.049Z,12.12
2023-04-19T08:26:42.695Z,12.98
2023-04-19T08:29:16.976Z,13.24
2023-04-19T08:31:51.172Z,12.90
2023-04-19T08:34:24.679Z,12.55
2023-04-19T08:37:04.006Z,12.70
2023-04-19T08:39:35.019Z,12.97
2023-04-19T08:42:24.600Z,13.07
2023-04-19T08:45:02.277Z,12.96
2023-04-19T08:47:30.323Z,14.52
2023-04-19T08:50:11.259Z,13.17
2023-04-19T08:52:47.944Z,12.85
2023-04-19T08:55:12.035Z,13.13
2023-04-19T08:57:45.626Z,14.97
2023-04-19T09:00:21.430Z,12.60
2023-04-19T09:02:56.270Z,11.52
2023-04-19T09:05:31.382Z,11.50
2023-04-19T09:08:25.696Z,11.08
2023-04-19T09:11:00.702Z,10.68
2023-04-19T09:13:36.962Z,10.54
2023-04-19T09:16:26.172Z,10.45
2023-04-19T09:19:15.249Z,10.34
2023-04-19T09:21:37.328Z,9.97
2023-04-19T09:24:11.658Z,9.63
2023-04-19T09:26:57.952Z,9.17
2023-04-19T09:29:31.747Z,9.92
2023-04-19T09:32:06.433Z,10.07
2023-04-19T09:34:43.098Z,9.67
2023-04-19T09:37:29.682Z,10.13
2023-04-19T09:39:52.506Z,9.58
2023-04-19T09:42:42.654Z,10.07
2023-04-19T09:47:39.656Z,9.72
2023-04-19T09:50:23.744Z,9.57
2023-04-19T09:52:51.731Z,9.13
2023-04-19T09:55:29.236Z,8.37
2023-04-19T09:58:02.600Z,8.52
2023-04-19T10:00:48.964Z,8.35
2023-04-19T10:03:13.754Z,7.88
2023-04-19T10:05:48.604Z,8.07
2023-04-19T10:08:22.856Z,8.13
2023-04-19T10:10:59.174Z,7.92
2023-04-19T10:13:32.542Z,7.83
2023-04-19T10:16:18.231Z,8.15
2023-04-19T10:18:42.726Z,7.94
2023-04-19T10:21:16.995Z,8.38
2023-04-19T10:23:51.459Z,8.85
2023-04-19T10:26:25.014Z,8.73
2023-04-19T10:28:59.016Z,8.88
2023-04-19T10:31:33.250Z,9.05
2023-04-19T10:34:08.515Z,9.44
2023-04-19T10:36:41.992Z,9.38
2023-04-19T10:39:43.039Z,9.50
2023-04-19T10:42:16.437Z,9.13
2023-04-19T10:45:24.418Z,8.73
2023-04-19T10:47:57.962Z,8.52
2023-04-19T10:50:32.579Z,8.12
2023-04-19T10:53:42.374Z,7.60
2023-04-19T10:56:17.275Z,7.66
2023-04-19T10:59:17.641Z,8.08
2023-04-19T11:01:57.313Z,7.80
2023-04-19T11:05:01.998Z,7.98
2023-04-19T11:07:42.040Z,8.08
2023-04-19T11:10:17.073Z,7.84
2023-04-19T11:12:52.229Z,7.69
2023-04-19T11:15:26.331Z,7.64
2023-04-19T11:18:11.899Z,7.76
2023-04-19T11:20:36.535Z,7.58
2023-04-19T11:23:18.982Z,7.58
2023-04-19T11:25:56.738Z,7.49
2023-04-19T11:28:30.295Z,7.92
2023-04-19T11:31:04.727Z,8.08
2023-04-19T11:33:38.967Z,8.09
2023-04-19T11:36:16.313Z,8.53
2023-04-19T11:38:50.489Z,8.84
2023-04-19T11:41:23.852Z,8.66
2023-04-19T11:43:57.563Z,8.32
2023-04-19T11:46:31.133Z,8.43
2023-04-19T11:49:04.724Z,8.65
2023-04-19T11:51:39.588Z,8.63
2023-04-19T11:54:19.452Z,8.16
2023-04-19T11:57:07.057Z,7.97
2023-04-19T11:59:41.019Z,7.75
2023-04-19T12:02:15.411Z,7.69
2023-04-19T12:04:49.171Z,7.71
2023-04-19T12:07:23.518Z,8.28
2023-04-19T12:09:56.975Z,8.08
2023-04-19T12:12:36.877Z,8.17
2023-04-19T12:15:12.288Z,7.68
2023-04-19T12:18:02.221Z,7.20
2023-04-19T12:20:37.009Z,7.29
2023-04-19T12:23:11.358Z,7.56
2023-04-19T12:25:47.579Z,7.57
2023-04-19T12:28:21.461Z,7.94
2023-04-19T12:30:55.039Z,8.28
2023-04-19T12:33:28.257Z,7.58
2023-04-19T12:36:29.700Z,7.56
2023-04-19T12:39:51.448Z,7.81
2023-04-19T12:42:28.014Z,7.68
2023-04-19T12:48:20.936Z,7.99
2023-04-19T12:50:54.625Z,7.69
2023-04-19T12:53:28.365Z,7.81
2023-04-19T12:56:01.970Z,8.01
2023-04-19T12:58:35.710Z,8.37
2023-04-19T13:01:09.533Z,8.02
2023-04-19T13:03:43.245Z,8.25
2023-04-19T13:06:17.017Z,8.46
2023-04-19T13:08:50.998Z,8.48
2023-04-19T13:11:24.785Z,9.42
2023-04-19T13:13:58.333Z,9.41
2023-04-19T13:16:31.781Z,9.17
2023-04-19T13:19:05.552Z,8.94
2023-04-19T13:21:39.086Z,8.58
2023-04-19T13:24:12.723Z,8.52
2023-04-19T13:29:29.197Z,8.52
2023-04-19T13:32:02.825Z,8.93
2023-04-19T13:34:36.593Z,9.36
2023-04-19T13:37:10.178Z,9.85
2023-04-19T13:39:44.360Z,9.87
2023-04-19T13:42:18.103Z,10.13
2023-04-19T13:44:58.593Z,9.91
2023-04-19T13:47:45.661Z,9.71
2023-04-19T13:50:51.235Z,9.51
2023-04-19T13:53:29.258Z,9.23
2023-04-19T13:56:02.740Z,9.11
2023-04-19T13:58:36.521Z,8.80
2023-04-19T14:01:10.359Z,8.57
2023-04-19T14:03:43.993Z,8.60
2023-04-19T14:06:17.822Z,8.36
2023-04-19T14:08:51.558Z,8.25
2023-04-19T14:11:26.400Z,8.51
2023-04-19T14:13:59.939Z,8.82
2023-04-19T14:16:33.530Z,9.51
2023-04-19T14:19:06.988Z,9.97
2023-04-19T14:21:40.508Z,10.13
2023-04-19T14:24:14.338Z,10.26
2023-04-19T14:26:56.872Z,10.77
2023-04-19T14:29:23.526Z,10.71
2023-04-19T14:32:01.267Z,10.79
2023-04-19T14:34:33.674Z,10.93
2023-04-19T14:37:07.200Z,10.92
2023-04-19T14:39:40.778Z,10.78
2023-04-19T14:42:14.808Z,10.52
2023-04-19T14:44:48.414Z,10.44
2023-04-19T14:47:22.360Z,10.51
2023-04-19T14:49:56.263Z,10.66
2023-04-19T14:52:30.357Z,10.88
2023-04-19T14:55:04.255Z,10.88
2023-04-19T14:57:37.944Z,10.82
2023-04-19T15:00:14.293Z,11.12
2023-04-19T15:02:47.882Z,11.18
2023-04-19T15:05:23.338Z,11.45
2023-04-19T15:07:57.450Z,11.57
2023-04-19T15:10:31.268Z,11.43
2023-04-19T15:13:08.045Z,11.33
2023-04-19T15:15:41.763Z,11.64
2023-04-19T15:18:15.063Z,11.65
2023-04-19T15:20:51.239Z,11.98
2023-04-19T15:23:26.502Z,12.37
2023-04-19T15:25:59.983Z,12.40
2023-04-19T15:28:36.254Z,12.69
2023-04-19T15:31:10.779Z,12.92
2023-04-19T15:33:44.410Z,12.89
2023-04-19T15:36:17.959Z,13.35
2023-04-19T15:38:51.692Z,13.34
2023-04-19T15:41:26.046Z,13.32
2023-04-19T15:44:00.182Z,13.38
2023-04-19T15:46:34.486Z,13.26
2023-04-19T15:49:08.289Z,13.68
2023-04-19T15:51:45.202Z,13.98
2023-04-19T15:54:23.260Z,14.03
2023-04-19T15:56:57.477Z,13.86
2023-04-19T15:59:31.663Z,13.85
2023-04-19T16:02:05.610Z,13.94
2023-04-19T16:04:39.265Z,14.29
2023-04-19T16:07:13.016Z,14.44
2023-04-19T16:09:46.596Z,14.60
2023-04-19T16:12:20.363Z,14.76
2023-04-19T16:14:54.060Z,14.89
2023-04-19T16:17:28.025Z,15.27
2023-04-19T16:20:01.949Z,15.16
2023-04-19T16:22:35.685Z,15.26
2023-04-19T16:25:11.590Z,15.58
2023-04-19T16:27:46.090Z,15.39
2023-04-19T16:30:19.696Z,15.56
2023-04-19T16:32:53.595Z,15.83
2023-04-19T16:35:27.972Z,16.03
2023-04-19T16:38:03.326Z,16.24
2023-04-19T16:40:37.188Z,16.59
2023-04-19T16:43:11.178Z,16.70
2023-04-19T16:45:45.016Z,16.89
2023-04-19T16:48:18.675Z,17.10
2023-04-19T16:50:54.076Z,17.34
2023-04-19T16:53:27.856Z,17.48
2023-04-19T16:56:03.664Z,17.81
2023-04-19T17:01:18.670Z,17.12
2023-04-19T17:03:53.940Z,18.03
2023-04-19T17:06:27.922Z,18.15
2023-04-19T17:09:04.522Z,17.88
2023-04-19T17:11:38.365Z,18.11
2023-04-19T17:14:11.981Z,18.33
2023-04-19T17:16:45.220Z,18.61
2023-04-19T17:19:19.139Z,18.88
2023-04-19T17:21:52.737Z,18.99
2023-04-19T17:24:26.417Z,18.89
2023-04-19T17:26:59.710Z,18.89
2023-04-19T17:29:33.098Z,19.14
2023-04-19T17:32:08.432Z,19.37
2023-04-19T17:34:42.025Z,19.25
2023-04-19T17:37:15.541Z,19.66
2023-04-19T17:39:48.805Z,19.51
2023-04-19T17:42:22.673Z,19.82
2023-04-19T17:44:56.601Z,20.10
2023-04-19T17:47:30.945Z,20.08
2023-04-19T17:50:11.014Z,19.83
2023-04-19T17:52:44.509Z,19.81
2023-04-19T17:55:20.636Z,20.13
2023-04-19T17:57:59.088Z,20.26
2023-04-19T18:00:45.768Z,20.29
2023-04-19T18:03:27.187Z,20.18
2023-04-19T18:06:03.848Z,20.19
2023-04-19T18:08:50.484Z,20.34
2023-04-19T18:11:28.276Z,20.24
2023-04-19T18:14:01.335Z,20.11
2023-04-19T18:16:35.260Z,20.27
2023-04-19T18:19:08.656Z,20.44
2023-04-19T18:21:42.442Z,20.93
2023-04-19T18:24:16.765Z,20.88
2023-04-19T18:26:50.093Z,21.18
2023-04-19T18:29:24.469Z,21.20
2023-04-19T18:31:58.155Z,21.22
2023-04-19T18:34:31.957Z,21.44
2023-04-19T18:37:07.041Z,21.30
2023-04-19T18:39:40.546Z,21.29
2023-04-19T18:42:14.230Z,21.49
2023-04-19T18:47:23.498Z,21.86
2023-04-19T18:50:05.380Z,21.62
2023-04-19T18:52:33.722Z,21.60
2023-04-19T18:55:08.940Z,21.66
2023-04-19T18:57:42.837Z,21.78
2023-04-19T19:00:18.830Z,21.80
2023-04-19T19:02:53.221Z,21.86
2023-04-19T19:05:27.823Z,22.14
2023-04-19T19:08:02.208Z,21.82
2023-04-19T19:13:12.125Z,22.47
2023-04-19T19:15:45.609Z,22.20
2023-04-19T19:18:19.445Z,22.22
2023-04-19T19:20:53.730Z,22.25
2023-04-19T19:26:04.186Z,22.16
2023-04-19T19:28:39.880Z,22.55
2023-04-19T19:31:15.131Z,22.36
2023-04-19T19:33:53.670Z,22.26
2023-04-19T19:36:25.003Z,22.31
2023-04-19T19:39:01.039Z,22.38
2023-04-19T19:44:11.033Z,22.66
2023-04-19T19:46:44.820Z,22.65
2023-04-19T19:51:58.260Z,22.44
2023-04-19T19:54:27.136Z,22.56
2023-04-19T19:57:48.309Z,22.64
2023-04-19T19:59:36.564Z,22.58
2023-04-19T20:02:10.999Z,22.55
2023-04-19T20:04:44.909Z,22.84
2023-04-19T20:07:29.362Z,23.09
2023-04-19T20:09:54.577Z,23.05
2023-04-19T20:12:28.392Z,23.11
2023-04-19T20:15:01.994Z,23.06
2023-04-19T20:17:36.419Z,23.13
2023-04-19T20:20:13.012Z,23.20
2023-04-19T20:22:47.955Z,23.58
2023-04-19T20:25:22.064Z,23.60
2023-04-19T20:27:58.011Z,23.31
2023-04-19T20:30:38.852Z,23.55
2023-04-19T20:33:15.695Z,23.36
2023-04-19T20:36:16.665Z,23.10
2023-04-19T20:38:50.796Z,23.11
2023-04-19T20:41:27.277Z,23.46
2023-04-19T20:44:01.503Z,23.11
2023-04-19T20:46:36.583Z,23.36
2023-04-19T20:49:10.401Z,23.45
2023-04-19T20:51:44.326Z,23.77
2023-04-19T20:54:18.456Z,23.84
2023-04-19T20:56:54.108Z,24.03
2023-04-19T20:59:27.783Z,24.20
2023-04-19T21:02:01.738Z,23.99
2023-04-19T21:04:38.935Z,24.35
2023-04-19T21:07:12.806Z,24.42
2023-04-19T21:09:46.327Z,24.46
2023-04-19T21:12:20.068Z,24.74
2023-04-19T21:14:53.752Z,24.81
2023-04-19T21:17:27.653Z,25.17
2023-04-19T21:20:02.385Z,24.88
2023-04-19T21:22:39.074Z,24.85
2023-04-19T21:25:14.240Z,24.75
2023-04-19T21:27:47.888Z,24.99
2023-04-19T21:30:23.895Z,25.17
2023-04-19T21:32:59.032Z,25.01
2023-04-19T21:35:33.864Z,25.16
2023-04-19T21:38:07.721Z,25.04
2023-04-19T21:40:41.530Z,25.39
2023-04-19T21:43:15.120Z,25.49
2023-04-19T21:45:48.410Z,25.68
2023-04-19T21:48:23.171Z,25.79
2023-04-19T21:50:56.794Z,26.17
2023-04-19T21:53:33.290Z,26.15
2023-04-19T21:56:08.574Z,26.14
2023-04-19T21:58:44.912Z,25.81
2023-04-19T22:01:22.122Z,26.22
2023-04-19T22:03:59.197Z,26.47
2023-04-19T22:06:33.920Z,26.07
2023-04-19T22:09:13.545Z,25.99
2023-04-19T22:11:47.131Z,26.19
2023-04-19T22:14:22.384Z,26.24
2023-04-19T22:16:56.790Z,26.37
2023-04-19T22:19:32.616Z,26.37
2023-04-19T22:22:06.507Z,26.55
2023-04-19T22:24:53.849Z,26.66
2023-04-19T22:27:15.932Z,26.56
2023-04-19T22:29:49.813Z,26.80
2023-04-19T22:32:23.862Z,26.38
2023-04-19T22:34:57.645Z,26.29
2023-04-19T22:37:31.558Z,26.30
2023-04-19T22:40:06.972Z,26.19
2023-04-19T22:42:40.867Z,26.33
2023-04-19T22:45:15.150Z,26.60
2023-04-19T22:47:49.430Z,26.42
2023-04-19T22:50:25.497Z,26.82
2023-04-19T22:52:59.027Z,26.80
2023-04-19T22:55:32.637Z,26.83
2023-04-19T22:58:06.593Z,26.97
2023-04-19T23:00:41.197Z,26.95
2023-04-19T23:03:14.972Z,27.06
2023-04-19T23:05:48.561Z,27.23
2023-04-19T23:08:22.151Z,27.41
2023-04-19T23:10:55.690Z,27.31
2023-04-19T23:13:29.556Z,27.33
2023-04-19T23:16:03.458Z,27.32
2023-04-19T23:18:37.158Z,27.48
2023-04-19T23:21:10.614Z,27.38
2023-04-19T23:23:44.456Z,27.14
2023-04-19T23:26:18.034Z,27.42
2023-04-19T23:28:51.860Z,27.47
2023-04-19T23:31:25.567Z,27.49
2023-04-19T23:33:59.252Z,27.52
2023-04-19T23:36:32.958Z,27.42
2023-04-19T23:39:06.665Z,27.62
2023-04-19T23:41:40.298Z,28.00
2023-04-19T23:44:13.620Z,28.11
2023-04-19T23:46:47.188Z,27.86
2023-04-19T23:49:20.942Z,27.76
2023-04-19T23:51:54.733Z,28.01
2023-04-19T23:54:28.374Z,28.00
2023-04-19T23:57:07.203Z,27.84
2023-04-19T23:59:40.580Z,27.95
